createdAt,value
2023-01-17T00:02:11.588Z,11.50
2023-01-17T00:06:12.176Z,14.52
2023-01-17T00:09:54.017Z,15.98
2023-01-17T00:13:35.741Z,10.57
2023-01-17T00:17:17.548Z,11.35
2023-01-17T00:21:18.384Z,10.63
2023-01-17T00:25:18.815Z,13.57
2023-01-17T00:29:00.494Z,12.90
2023-01-17T00:32:42.258Z,12.30
2023-01-17T00:36:24.292Z,14.07
2023-01-17T00:40:06.835Z,16.30
2023-01-17T00:44:07.202Z,13.83
2023-01-17T00:48:07.587Z,14.40
2023-01-17T00:52:08.035Z,10.57
2023-01-17T00:56:08.788Z,10.90
2023-01-17T01:00:09.561Z,17.38
2023-01-17T01:04:10.268Z,14.23
2023-01-17T01:08:10.740Z,11.68
2023-01-17T01:12:10.997Z,12.35
2023-01-17T01:16:11.389Z,12.68
2023-01-17T01:20:12.116Z,10.50
2023-01-17T01:24:12.395Z,13.13
2023-01-17T01:28:22.708Z,13.48
2023-01-17T01:32:23.163Z,11.00
2023-01-17T01:36:07.817Z,13.68
2023-01-17T01:39:49.689Z,14.13
2023-01-17T01:43:47.888Z,10.02
2023-01-17T01:47:35.819Z,11.55
2023-01-17T01:51:22.053Z,11.45
2023-01-17T01:55:16.597Z,12.30
2023-01-17T01:58:59.911Z,13.80
2023-01-17T02:02:43.333Z,11.38
2023-01-17T02:06:27.782Z,12.48
2023-01-17T02:10:10.125Z,11.32
2023-01-17T02:13:51.881Z,12.27
2023-01-17T02:17:51.617Z,13.43
2023-01-17T02:21:59.111Z,11.10
2023-01-17T02:26:03.512Z,13.45
2023-01-17T02:30:03.732Z,13.40
2023-01-17T02:34:02.559Z,17.83
2023-01-17T02:38:12.982Z,18.65
2023-01-17T02:42:00.175Z,16.73
2023-01-17T02:45:42.236Z,19.55
2023-01-17T02:49:30.288Z,19.65
2023-01-17T02:53:20.559Z,15.98
2023-01-17T02:57:36.788Z,17.08
2023-01-17T03:01:43.057Z,13.13
2023-01-17T03:05:52.924Z,14.73
2023-01-17T03:09:35.264Z,14.82
2023-01-17T03:13:17.135Z,18.75
2023-01-17T03:16:59.068Z,16.27
2023-01-17T03:20:40.964Z,11.63
2023-01-17T03:24:22.674Z,13.20
2023-01-17T03:28:04.675Z,13.75
2023-01-17T03:31:46.706Z,14.52
2023-01-17T03:35:28.532Z,13.88
2023-01-17T03:39:10.233Z,11.23
2023-01-17T03:42:52.008Z,10.20
2023-01-17T03:46:33.797Z,18.40
2023-01-17T03:50:15.691Z,11.82
2023-01-17T03:53:57.586Z,11.98
2023-01-17T03:57:39.599Z,15.05
2023-01-17T04:01:21.355Z,11.55
2023-01-17T04:05:03.398Z,16.40
2023-01-17T04:08:45.111Z,17.35
2023-01-17T04:12:26.893Z,26.27
2023-01-17T04:16:15.394Z,16.13
2023-01-17T04:19:57.165Z,14.93
2023-01-17T04:23:38.996Z,13.75
2023-01-17T04:27:20.794Z,16.48
2023-01-17T04:31:02.545Z,17.65
2023-01-17T04:34:44.275Z,15.25
2023-01-17T04:38:26.040Z,13.77
2023-01-17T04:42:07.767Z,20.25
2023-01-17T04:45:55.209Z,15.70
2023-01-17T04:49:36.930Z,16.77
2023-01-17T04:53:18.649Z,17.63
2023-01-17T04:57:00.365Z,13.40
2023-01-17T05:00:42.068Z,14.35
2023-01-17T05:04:23.896Z,17.77
2023-01-17T05:08:05.587Z,19.70
2023-01-17T05:11:47.295Z,15.95
2023-01-17T05:15:29.593Z,16.10
2023-01-17T05:19:11.352Z,17.63
2023-01-17T05:22:57.559Z,18.23
2023-01-17T05:26:40.698Z,14.27
2023-01-17T05:30:23.004Z,14.68
2023-01-17T05:34:04.858Z,16.27
2023-01-17T05:37:49.618Z,14.98
2023-01-17T05:41:31.310Z,16.48
2023-01-17T05:45:19.453Z,14.73
2023-01-17T05:49:01.207Z,17.35
2023-01-17T05:52:53.129Z,16.58
2023-01-17T05:56:34.984Z,22.67
2023-01-17T06:00:18.035Z,17.20
2023-01-17T06:03:59.770Z,19.85
2023-01-17T06:07:44.723Z,18.33
2023-01-17T06:11:26.845Z,16.13
2023-01-17T06:15:09.550Z,18.58
2023-01-17T06:18:51.308Z,16.95
2023-01-17T06:22:33.737Z,21.10
2023-01-17T06:26:15.491Z,16.88
2023-01-17T06:29:57.209Z,18.83
2023-01-17T06:33:38.933Z,17.00
2023-01-17T06:37:20.626Z,17.65
2023-01-17T06:41:05.799Z,17.15
2023-01-17T06:44:47.588Z,14.98
2023-01-17T06:48:29.362Z,17.80
2023-01-17T06:52:11.110Z,19.17
2023-01-17T06:55:56.598Z,21.27
2023-01-17T06:59:38.443Z,16.67
2023-01-17T07:03:22.699Z,17.67
2023-01-17T07:07:04.483Z,15.50
2023-01-17T07:10:48.055Z,18.15
2023-01-17T07:14:30.376Z,17.60
2023-01-17T07:18:12.146Z,17.13
2023-01-17T07:21:54.491Z,17.63
2023-01-17T07:25:36.240Z,18.70
2023-01-17T07:29:18.755Z,17.95
2023-01-17T07:33:01.403Z,20.03
2023-01-17T07:36:43.136Z,22.97
2023-01-17T07:40:25.436Z,20.33
2023-01-17T07:44:14.008Z,19.02
2023-01-17T07:47:58.816Z,22.17
2023-01-17T07:51:40.530Z,18.83
2023-01-17T07:55:22.727Z,27.02
2023-01-17T07:59:04.449Z,22.38
2023-01-17T08:02:46.265Z,21.98
2023-01-17T08:06:29.235Z,20.80
2023-01-17T08:10:13.292Z,17.75
2023-01-17T08:13:59.267Z,20.67
2023-01-17T08:17:49.342Z,18.33
2023-01-17T08:21:31.165Z,22.27
2023-01-17T08:25:13.048Z,23.20
2023-01-17T08:28:56.853Z,24.33
2023-01-17T08:32:41.650Z,21.95
2023-01-17T08:36:25.720Z,30.13
2023-01-17T08:40:08.773Z,22.30
2023-01-17T08:43:51.785Z,27.00
2023-01-17T08:47:34.815Z,28.98
2023-01-17T08:51:16.595Z,22.92
2023-01-17T08:54:58.518Z,21.25
2023-01-17T08:58:41.413Z,25.00
2023-01-17T09:02:24.711Z,23.45
2023-01-17T09:06:09.486Z,21.77
2023-01-17T09:09:52.658Z,29.20
2023-01-17T09:13:34.891Z,27.95
2023-01-17T09:17:16.713Z,215.93
2023-01-17T09:21:01.619Z,65.65
2023-01-17T09:24:43.374Z,36.38
2023-01-17T09:28:26.496Z,50.17
2023-01-17T09:32:08.264Z,27.08
2023-01-17T09:35:50.207Z,55.33
2023-01-17T09:39:31.941Z,59.38
2023-01-17T09:43:40.743Z,24.55
2023-01-17T09:47:34.514Z,20.92
2023-01-17T09:55:02.682Z,25.92
2023-01-17T09:58:52.555Z,36.38
2023-01-17T10:03:01.995Z,23.67
2023-01-17T10:07:02.834Z,33.55
2023-01-17T10:10:55.119Z,30.50
2023-01-17T10:14:36.814Z,32.33
2023-01-17T10:18:30.434Z,21.25
2023-01-17T10:22:42.962Z,20.60
2023-01-17T10:26:26.052Z,19.55
2023-01-17T10:30:22.877Z,24.45
2023-01-17T10:34:13.458Z,22.33
2023-01-17T10:37:58.252Z,24.90
2023-01-17T10:41:46.333Z,23.70
2023-01-17T10:45:29.246Z,20.58
2023-01-17T10:49:21.218Z,17.13
2023-01-17T10:53:14.689Z,19.05
2023-01-17T10:57:05.185Z,16.85
2023-01-17T11:00:55.231Z,18.67
2023-01-17T11:04:42.122Z,13.48
2023-01-17T11:08:23.901Z,17.65
2023-01-17T11:12:06.134Z,14.80
2023-01-17T11:15:50.545Z,15.65
2023-01-17T11:19:36.282Z,15.00
2023-01-17T11:23:21.689Z,14.82
2023-01-17T11:27:08.278Z,15.32
2023-01-17T11:31:03.667Z,13.23
2023-01-17T11:35:04.769Z,11.63
2023-01-17T11:39:18.215Z,12.20
2023-01-17T11:43:18.676Z,8.55
2023-01-17T11:47:12.555Z,12.68
2023-01-17T11:50:58.706Z,9.30
2023-01-17T11:54:42.411Z,11.73
2023-01-17T11:58:26.617Z,10.52
2023-01-17T12:02:31.726Z,9.88
2023-01-17T12:06:26.792Z,9.63
2023-01-17T12:10:27.974Z,12.13
2023-01-17T12:14:26.109Z,13.60
2023-01-17T12:18:31.251Z,13.23
2023-01-17T12:22:40.832Z,12.13
2023-01-17T12:26:34.865Z,12.05
2023-01-17T12:30:45.006Z,9.48
2023-01-17T12:34:35.930Z,11.98
2023-01-17T12:38:32.534Z,13.05
2023-01-17T12:42:24.056Z,12.73
2023-01-17T12:46:31.021Z,11.63
2023-01-17T12:50:45.103Z,10.50
2023-01-17T12:58:20.889Z,11.13
2023-01-17T13:02:32.443Z,9.95
2023-01-17T13:06:29.057Z,12.35
2023-01-17T13:10:39.694Z,11.18
2023-01-17T13:14:21.386Z,14.02
2023-01-17T13:18:06.509Z,9.55
2023-01-17T13:21:50.526Z,11.43
2023-01-17T13:25:45.752Z,8.80
2023-01-17T13:29:42.469Z,10.07
2023-01-17T13:33:26.960Z,13.73
2023-01-17T13:37:36.838Z,8.93
2023-01-17T13:41:45.640Z,10.40
2023-01-17T13:45:38.098Z,8.88
2023-01-17T13:49:38.677Z,11.13
2023-01-17T13:53:35.434Z,8.20
2023-01-17T13:57:46.170Z,9.95
2023-01-17T14:01:38.773Z,9.73
2023-01-17T14:05:29.853Z,11.60
2023-01-17T14:09:14.565Z,12.88
2023-01-17T14:12:56.829Z,15.70
2023-01-17T14:16:39.608Z,15.15
2023-01-17T14:20:29.365Z,12.50
2023-01-17T14:24:11.110Z,15.50
2023-01-17T14:27:56.869Z,16.23
2023-01-17T14:31:38.733Z,20.33
2023-01-17T14:35:22.861Z,19.67
2023-01-17T14:39:20.161Z,14.40
2023-01-17T14:43:06.923Z,17.85
2023-01-17T14:46:49.288Z,14.60
2023-01-17T14:50:38.108Z,20.88
2023-01-17T14:54:22.197Z,17.15
2023-01-17T14:58:04.652Z,12.35
2023-01-17T15:02:07.529Z,12.60
2023-01-17T15:05:52.599Z,13.73
2023-01-17T15:09:37.773Z,19.17
2023-01-17T15:13:35.478Z,29.75
2023-01-17T15:17:25.101Z,22.02
2023-01-17T15:21:11.171Z,20.77
2023-01-17T15:24:53.596Z,15.45
2023-01-17T15:28:35.862Z,15.52
2023-01-17T15:32:23.965Z,24.20
2023-01-17T15:36:14.385Z,31.85
2023-01-17T15:40:18.991Z,39.50
2023-01-17T15:44:01.587Z,32.35
2023-01-17T15:47:43.446Z,23.40
2023-01-17T15:51:38.426Z,17.77
2023-01-17T15:55:29.182Z,18.92
2023-01-17T15:59:50.767Z,22.02
2023-01-17T16:03:32.534Z,16.35
2023-01-17T16:07:22.777Z,20.48
2023-01-17T16:11:06.383Z,24.05
2023-01-17T16:15:02.789Z,26.75
2023-01-17T16:18:57.547Z,34.10
2023-01-17T16:22:39.305Z,42.53
2023-01-17T16:26:21.447Z,38.03
2023-01-17T16:30:03.458Z,28.58
2023-01-17T16:33:46.166Z,34.38
2023-01-17T16:37:27.958Z,29.70
2023-01-17T16:41:09.732Z,26.63
2023-01-17T16:44:51.450Z,26.60
2023-01-17T16:48:33.249Z,31.85
2023-01-17T16:52:15.001Z,26.75
2023-01-17T16:55:59.580Z,34.80
2023-01-17T16:59:50.655Z,32.47
2023-01-17T17:03:32.783Z,30.08
2023-01-17T17:07:14.629Z,33.45
2023-01-17T17:11:13.047Z,50.67
2023-01-17T17:14:55.012Z,53.08
2023-01-17T17:18:36.784Z,53.17
2023-01-17T17:22:18.738Z,64.75
2023-01-17T17:26:00.779Z,42.97
2023-01-17T17:29:42.515Z,43.38
2023-01-17T17:33:24.248Z,36.88
2023-01-17T17:37:05.984Z,41.33
2023-01-17T17:40:47.662Z,44.75
2023-01-17T17:44:29.412Z,42.47
2023-01-17T17:48:11.108Z,38.70
2023-01-17T17:51:52.827Z,35.67
2023-01-17T17:55:35.936Z,32.17
2023-01-17T17:59:20.951Z,43.05
2023-01-17T18:03:02.650Z,35.03
2023-01-17T18:06:44.604Z,40.85
2023-01-17T18:10:26.897Z,41.05
2023-01-17T18:14:12.452Z,38.88
2023-01-17T18:17:56.148Z,32.38
2023-01-17T18:21:39.199Z,41.17
2023-01-17T18:25:20.949Z,45.28
2023-01-17T18:29:04.153Z,40.22
2023-01-17T18:32:49.862Z,53.65
2023-01-17T18:36:31.819Z,58.42
2023-01-17T18:40:13.746Z,66.95
2023-01-17T18:43:58.645Z,59.10
2023-01-17T18:47:40.350Z,61.38
2023-01-17T18:51:22.155Z,69.97
2023-01-17T18:55:04.618Z,91.68
2023-01-17T18:58:48.082Z,59.10
2023-01-17T19:06:16.911Z,56.80
2023-01-17T19:09:58.595Z,49.05
2023-01-17T19:13:42.155Z,63.28
2023-01-17T19:17:24.008Z,68.65
2023-01-17T19:21:15.461Z,81.90
2023-01-17T19:24:57.162Z,53.10
2023-01-17T19:28:43.911Z,44.35
2023-01-17T19:32:25.669Z,34.60
2023-01-17T19:36:09.243Z,35.65
2023-01-17T19:39:51.131Z,26.35
2023-01-17T19:43:33.300Z,28.88
2023-01-17T19:47:15.079Z,37.45
2023-01-17T19:51:12.474Z,50.10
2023-01-17T19:54:54.179Z,42.10
2023-01-17T19:58:36.503Z,43.08
2023-01-17T20:02:18.891Z,40.00
2023-01-17T20:06:00.976Z,47.80
2023-01-17T20:09:42.695Z,62.13
2023-01-17T20:13:25.311Z,50.65
2023-01-17T20:17:07.047Z,54.70
2023-01-17T20:20:56.943Z,63.25
2023-01-17T20:24:39.392Z,58.63
2023-01-17T20:28:21.153Z,29.65
2023-01-17T20:32:02.966Z,23.40
2023-01-17T20:35:45.043Z,28.15
2023-01-17T20:39:26.930Z,24.08
2023-01-17T20:43:10.011Z,18.88
2023-01-17T20:46:51.727Z,17.63
2023-01-17T20:50:36.769Z,14.32
2023-01-17T20:54:19.250Z,13.52
2023-01-17T20:58:00.971Z,14.80
2023-01-17T21:01:43.885Z,19.50
2023-01-17T21:05:25.776Z,21.63
2023-01-17T21:09:10.734Z,15.20
2023-01-17T21:12:52.446Z,14.68
2023-01-17T21:16:35.272Z,13.27
2023-01-17T21:20:17.198Z,11.25
2023-01-17T21:23:59.440Z,12.57
2023-01-17T21:27:41.196Z,14.48
2023-01-17T21:31:25.207Z,27.70
2023-01-17T21:35:07.686Z,46.95
2023-01-17T21:38:56.783Z,44.87
2023-01-17T21:42:38.509Z,27.00
2023-01-17T21:46:20.325Z,22.67
2023-01-17T21:50:02.147Z,33.67
2023-01-17T21:53:43.963Z,30.83
2023-01-17T21:58:00.981Z,30.30
2023-01-17T22:01:42.800Z,23.55
2023-01-17T22:05:24.620Z,28.33
2023-01-17T22:09:07.255Z,23.13
2023-01-17T22:12:52.187Z,15.52
2023-01-17T22:16:33.951Z,21.20
2023-01-17T22:20:16.056Z,20.70
2023-01-17T22:23:59.682Z,18.67
2023-01-17T22:27:41.403Z,16.02
2023-01-17T22:31:26.152Z,17.45
2023-01-17T22:35:08.426Z,14.70
2023-01-17T22:38:50.761Z,12.95
2023-01-17T22:42:34.349Z,14.68
2023-01-17T22:46:19.024Z,16.88
2023-01-17T22:50:00.849Z,19.38
2023-01-17T22:53:48.402Z,20.13
2023-01-17T22:57:32.864Z,18.58
2023-01-17T23:01:18.107Z,19.58
2023-01-17T23:04:59.894Z,15.63
2023-01-17T23:08:44.698Z,17.40
2023-01-17T23:12:26.734Z,14.45
2023-01-17T23:16:27.627Z,14.55
2023-01-17T23:20:11.145Z,17.95
2023-01-17T23:28:02.067Z,7.10
2023-01-17T23:31:44.328Z,10.55
2023-01-17T23:35:29.220Z,7.53
2023-01-17T23:39:11.197Z,13.00
2023-01-17T23:43:11.556Z,7.85
2023-01-17T23:46:53.812Z,7.38
2023-01-17T23:50:47.217Z,9.13
2023-01-17T23:54:29.188Z,26.95
2023-01-17T23:58:12.973Z,9.18
